Terminal Aerodrome Forecast
Issued by NWS Amarillo, TX

Home | Current Version | Previous Version | Text Only | Print | Product List | Glossary On
Versions: 1 2 3 4 5 6 7 8 9 10 11 12 13
000
FTUS44 KAMA 230500
TAFDHT
TAF
KDHT 230520Z 2306/2406 19012KT P6SM FEW250
     FM230800 28014KT P6SM SCT120
     FM231200 35025G30KT P6SM BKN050
     FM231600 35016KT P6SM BKN035=

USA.gov is the U.S. government's official web portal to all federal, state and local government web resources and services.